Atalanti — 5BYY2 — position and weather

sailwx.info

Track history (hours):
 
Tides and Currents Weather Stations Pressure Air Temp Water Temp Dewpoint Dewpoint Depression Visibility Wind Speed Wind Dir Waves Ship Positions

Atalanti

Last reported at 2016-Dec-06 23:29 UTC. Time now 2016-Dec-10 14:46 UTC.
Position N 35°56' W 005°10'.

Length 97 m; draft 3.9 m.

Type: Other ship. MMSI: 212279000.

Date/timePositionNaut miles runAvg speedWind from/ knotsBaromVisibWave heightAir tempDewpointWater temp
2016-Dec-06 23:29N 35°56' W 005°10'6 6.8
2016-Dec-06 22:33N 35°55' W 005°17'0 0.2
2016-Dec-06 21:33N 35°55' W 005°17'2 1.8
2016-Dec-06 20:31N 35°54' W 005°18'0 0.0
2016-Dec-06 18:31N 35°54' W 005°18'0 0.0
2016-Dec-06 17:25N 35°54' W 005°18'0 0.0
2016-Dec-06 16:31N 35°54' W 005°18'0 0.0
2016-Dec-06 15:31N 35°54' W 005°18'0 0.0
2016-Dec-06 14:31N 35°54' W 005°18'0 0.0
2016-Dec-06 13:31N 35°54' W 005°18'1 0.9
2016-Dec-06 12:34N 35°54' W 005°19'3 2.7
2016-Dec-06 11:32N 35°57' W 005°21'4 4.4
2016-Dec-06 10:34N 35°57' W 005°26'261 7.9
2016-Dec-05 01:30N 38°20' W 010°00'11 8.0
2016-Dec-05 00:05N 38°31' W 010°04'7 7.7
2016-Dec-04 23:09N 38°38' W 010°06'7 7.5
2016-Dec-04 22:15N 38°45' W 010°07'6 7.5
2016-Dec-04 21:31N 38°50' W 010°07'7 7.3
2016-Dec-04 20:33N 38°57' W 010°07'93 3.3
2016-Dec-03 16:33N 40°29' W 009°43'4 4.2
2016-Dec-03 15:34N 40°32' W 009°46'5 4.5
2016-Dec-03 14:32N 40°36' W 009°50'5 4.9
2016-Dec-03 13:33N 40°39' W 009°54'5 4.9
2016-Dec-03 12:33N 40°43' W 009°59'200 8.6
2016-Dec-02 13:21N 44°02' W 009°34'233 9.4
2016-Dec-01 12:33N 47°25' W 006°51'11 9.1
2016-Dec-01 11:18N 47°35' W 006°44'7 9.3
2016-Dec-01 10:33N 47°42' W 006°40'21 9.5
2016-Dec-01 08:20N 48°02' W 006°31'133 8.4
2016-Nov-30 16:31N 49°34' W 004°06'16 8.1
2016-Nov-30 14:30N 49°42' W 003°44'1110.4
2016-Nov-30 13:29N 49°47' W 003°30'1110.8
2016-Nov-30 12:31N 49°52' W 003°16'1010.5
2016-Nov-30 11:33N 49°57' W 003°02'10 9.6
2016-Nov-30 10:33N 50°01' W 002°49'10 8.5
2016-Nov-30 09:25N 50°04' W 002°34'8 7.2
2016-Nov-30 08:20N 50°06' W 002°22'5 6.5
2016-Nov-30 07:31N 50°07' W 002°14'6 6.7
2016-Nov-30 06:33N 50°09' W 002°05'8 7.8
2016-Nov-30 05:33N 50°11' W 001°53'4711.1
2016-Nov-30 01:19N 50°24' W 000°42'911.0
2016-Nov-30 00:32N 50°27' W 000°29'1010.1
2016-Nov-29 23:33N 50°29' W 000°14'9 9.0
2016-Nov-29 22:33N 50°32' W 000°01'8 7.9
2016-Nov-29 21:34N 50°34' E 000°11'7 7.3
2016-Nov-29 20:33N 50°36' E 000°23'19 8.7
2016-Nov-29 18:22N 50°45' E 000°49'910.6
2016-Nov-29 17:33N 50°50' E 000°60'1110.7
2016-Nov-29 16:33N 50°57' E 001°13'10 9.9
2016-Nov-29 15:34N 51°03' E 001°25'8 8.5
2016-Nov-29 14:33N 51°08' E 001°36'7 7.3
2016-Nov-29 13:33N 51°13' E 001°45'7 7.1
2016-Nov-29 12:34N 51°19' E 001°49'8 7.8
2016-Nov-29 11:34N 51°26' E 001°55'9 8.9
2016-Nov-29 10:34N 51°33' E 002°04'1110.2
2016-Nov-29 09:30N 51°41' E 002°16'1010.9
2016-Nov-29 08:32N 51°49' E 002°27'1010.8
2016-Nov-29 07:34N 51°58' E 002°36'1110.5
2016-Nov-29 06:32N 52°08' E 002°42'  
Track history (hours):
 
Tides and Currents Weather Stations Pressure Air Temp Water Temp Dewpoint Dewpoint Depression Visibility Wind Speed Wind Dir Waves Ship Positions

Atalanti

Last reported at 2016-Dec-06 23:29 UTC. Time now 2016-Dec-10 14:46 UTC.
Position N 35°56' W 005°10'.

Length 97 m; draft 3.9 m.

Type: Other ship. MMSI: 212279000.

Date/timePositionNaut miles runAvg speedWind from/ knotsBaromVisibWave heightAir tempDewpointWater temp
2016-Dec-06 23:29N 35°56' W 005°10'6 6.8
2016-Dec-06 22:33N 35°55' W 005°17'0 0.2
2016-Dec-06 21:33N 35°55' W 005°17'2 1.8
2016-Dec-06 20:31N 35°54' W 005°18'0 0.0
2016-Dec-06 18:31N 35°54' W 005°18'0 0.0
2016-Dec-06 17:25N 35°54' W 005°18'0 0.0
2016-Dec-06 16:31N 35°54' W 005°18'0 0.0
2016-Dec-06 15:31N 35°54' W 005°18'0 0.0
2016-Dec-06 14:31N 35°54' W 005°18'0 0.0
2016-Dec-06 13:31N 35°54' W 005°18'1 0.9
2016-Dec-06 12:34N 35°54' W 005°19'3 2.7
2016-Dec-06 11:32N 35°57' W 005°21'4 4.4
2016-Dec-06 10:34N 35°57' W 005°26'261 7.9
2016-Dec-05 01:30N 38°20' W 010°00'11 8.0
2016-Dec-05 00:05N 38°31' W 010°04'7 7.7
2016-Dec-04 23:09N 38°38' W 010°06'7 7.5
2016-Dec-04 22:15N 38°45' W 010°07'6 7.5
2016-Dec-04 21:31N 38°50' W 010°07'7 7.3
2016-Dec-04 20:33N 38°57' W 010°07'93 3.3
2016-Dec-03 16:33N 40°29' W 009°43'4 4.2
2016-Dec-03 15:34N 40°32' W 009°46'5 4.5
2016-Dec-03 14:32N 40°36' W 009°50'5 4.9
2016-Dec-03 13:33N 40°39' W 009°54'5 4.9
2016-Dec-03 12:33N 40°43' W 009°59'200 8.6
2016-Dec-02 13:21N 44°02' W 009°34'233 9.4
2016-Dec-01 12:33N 47°25' W 006°51'11 9.1
2016-Dec-01 11:18N 47°35' W 006°44'7 9.3
2016-Dec-01 10:33N 47°42' W 006°40'21 9.5
2016-Dec-01 08:20N 48°02' W 006°31'133 8.4
2016-Nov-30 16:31N 49°34' W 004°06'16 8.1
2016-Nov-30 14:30N 49°42' W 003°44'1110.4
2016-Nov-30 13:29N 49°47' W 003°30'1110.8
2016-Nov-30 12:31N 49°52' W 003°16'1010.5
2016-Nov-30 11:33N 49°57' W 003°02'10 9.6
2016-Nov-30 10:33N 50°01' W 002°49'10 8.5
2016-Nov-30 09:25N 50°04' W 002°34'8 7.2
2016-Nov-30 08:20N 50°06' W 002°22'5 6.5
2016-Nov-30 07:31N 50°07' W 002°14'6 6.7
2016-Nov-30 06:33N 50°09' W 002°05'8 7.8
2016-Nov-30 05:33N 50°11' W 001°53'4711.1
2016-Nov-30 01:19N 50°24' W 000°42'911.0
2016-Nov-30 00:32N 50°27' W 000°29'1010.1
2016-Nov-29 23:33N 50°29' W 000°14'9 9.0
2016-Nov-29 22:33N 50°32' W 000°01'8 7.9
2016-Nov-29 21:34N 50°34' E 000°11'7 7.3
2016-Nov-29 20:33N 50°36' E 000°23'19 8.7
2016-Nov-29 18:22N 50°45' E 000°49'910.6
2016-Nov-29 17:33N 50°50' E 000°60'1110.7
2016-Nov-29 16:33N 50°57' E 001°13'10 9.9
2016-Nov-29 15:34N 51°03' E 001°25'8 8.5
2016-Nov-29 14:33N 51°08' E 001°36'7 7.3
2016-Nov-29 13:33N 51°13' E 001°45'7 7.1
2016-Nov-29 12:34N 51°19' E 001°49'8 7.8
2016-Nov-29 11:34N 51°26' E 001°55'9 8.9
2016-Nov-29 10:34N 51°33' E 002°04'1110.2
2016-Nov-29 09:30N 51°41' E 002°16'1010.9
2016-Nov-29 08:32N 51°49' E 002°27'1010.8
2016-Nov-29 07:34N 51°58' E 002°36'1110.5
2016-Nov-29 06:32N 52°08' E 002°42'  

Dump ship's entire track history